sensor_id;sensor_type;location;lat;lon;timestamp;P1;durP1;ratioP1;P2;durP2;ratioP2
16115;SDS011;8162;47.104;15.432;2022-07-23T00:00:05;12.30;;;9.80;;
16115;SDS011;8162;47.104;15.432;2022-07-23T00:02:32;10.83;;;9.77;;
16115;SDS011;8162;47.104;15.432;2022-07-23T00:04:58;10.07;;;9.17;;
16115;SDS011;8162;47.104;15.432;2022-07-23T00:07:23;9.80;;;8.87;;
16115;SDS011;8162;47.104;15.432;2022-07-23T00:09:49;9.03;;;8.23;;
16115;SDS011;8162;47.104;15.432;2022-07-23T00:12:15;9.20;;;8.30;;
16115;SDS011;8162;47.104;15.432;2022-07-23T00:14:40;9.60;;;8.60;;
16115;SDS011;8162;47.104;15.432;2022-07-23T00:17:09;9.37;;;8.47;;
16115;SDS011;8162;47.104;15.432;2022-07-23T00:19:35;11.23;;;9.60;;
16115;SDS011;8162;47.104;15.432;2022-07-23T00:22:01;10.47;;;9.47;;
16115;SDS011;8162;47.104;15.432;2022-07-23T00:24:26;10.60;;;9.50;;
16115;SDS011;8162;47.104;15.432;2022-07-23T00:26:52;10.37;;;9.37;;
16115;SDS011;8162;47.104;15.432;2022-07-23T00:29:18;11.20;;;10.10;;
16115;SDS011;8162;47.104;15.432;2022-07-23T00:31:43;11.40;;;10.27;;
16115;SDS011;8162;47.104;15.432;2022-07-23T00:34:09;10.50;;;9.50;;
16115;SDS011;8162;47.104;15.432;2022-07-23T00:36:34;10.37;;;9.37;;
16115;SDS011;8162;47.104;15.432;2022-07-23T00:39:00;11.27;;;9.93;;
16115;SDS011;8162;47.104;15.432;2022-07-23T00:41:26;10.07;;;9.17;;
16115;SDS011;8162;47.104;15.432;2022-07-23T00:43:51;11.33;;;9.57;;
16115;SDS011;8162;47.104;15.432;2022-07-23T00:46:20;10.10;;;9.30;;
16115;SDS011;8162;47.104;15.432;2022-07-23T00:48:47;10.63;;;9.73;;
16115;SDS011;8162;47.104;15.432;2022-07-23T00:51:12;10.20;;;9.13;;
16115;SDS011;8162;47.104;15.432;2022-07-23T00:53:40;10.13;;;9.13;;
16115;SDS011;8162;47.104;15.432;2022-07-23T00:56:07;9.87;;;9.07;;
16115;SDS011;8162;47.104;15.432;2022-07-23T00:58:34;9.93;;;8.70;;
16115;SDS011;8162;47.104;15.432;2022-07-23T01:01:00;10.37;;;9.37;;
16115;SDS011;8162;47.104;15.432;2022-07-23T01:03:26;9.80;;;8.93;;
16115;SDS011;8162;47.104;15.432;2022-07-23T01:05:52;9.67;;;8.87;;
16115;SDS011;8162;47.104;15.432;2022-07-23T01:08:18;11.33;;;9.50;;
16115;SDS011;8162;47.104;15.432;2022-07-23T01:10:43;10.13;;;9.23;;
16115;SDS011;8162;47.104;15.432;2022-07-23T01:13:09;10.00;;;8.93;;
16115;SDS011;8162;47.104;15.432;2022-07-23T01:15:36;11.30;;;10.27;;
16115;SDS011;8162;47.104;15.432;2022-07-23T01:18:03;11.03;;;9.93;;
16115;SDS011;8162;47.104;15.432;2022-07-23T01:20:30;10.73;;;9.83;;
16115;SDS011;8162;47.104;15.432;2022-07-23T01:22:57;9.00;;;8.20;;
16115;SDS011;8162;47.104;15.432;2022-07-23T01:25:23;10.03;;;9.03;;
16115;SDS011;8162;47.104;15.432;2022-07-23T01:27:50;10.80;;;9.80;;
16115;SDS011;8162;47.104;15.432;2022-07-23T01:30:17;11.70;;;9.30;;
16115;SDS011;8162;47.104;15.432;2022-07-23T01:32:43;9.63;;;8.73;;
16115;SDS011;8162;47.104;15.432;2022-07-23T01:35:09;10.43;;;9.53;;
16115;SDS011;8162;47.104;15.432;2022-07-23T01:37:35;10.73;;;9.73;;
16115;SDS011;8162;47.104;15.432;2022-07-23T01:40:00;10.73;;;9.83;;
16115;SDS011;8162;47.104;15.432;2022-07-23T01:42:26;10.50;;;9.60;;
16115;SDS011;8162;47.104;15.432;2022-07-23T01:44:52;10.40;;;9.40;;
16115;SDS011;8162;47.104;15.432;2022-07-23T01:47:17;13.03;;;9.87;;
16115;SDS011;8162;47.104;15.432;2022-07-23T01:49:43;10.57;;;9.47;;
16115;SDS011;8162;47.104;15.432;2022-07-23T01:52:09;10.63;;;9.67;;
16115;SDS011;8162;47.104;15.432;2022-07-23T01:54:36;11.07;;;9.77;;
16115;SDS011;8162;47.104;15.432;2022-07-23T01:57:03;10.20;;;9.30;;
16115;SDS011;8162;47.104;15.432;2022-07-23T01:59:29;10.63;;;9.67;;
16115;SDS011;8162;47.104;15.432;2022-07-23T02:01:55;11.63;;;10.07;;
16115;SDS011;8162;47.104;15.432;2022-07-23T02:04:21;11.50;;;10.47;;
16115;SDS011;8162;47.104;15.432;2022-07-23T02:06:47;11.27;;;10.27;;
16115;SDS011;8162;47.104;15.432;2022-07-23T02:09:13;11.37;;;10.37;;
16115;SDS011;8162;47.104;15.432;2022-07-23T02:11:40;9.57;;;8.67;;
16115;SDS011;8162;47.104;15.432;2022-07-23T02:14:06;10.70;;;9.73;;
16115;SDS011;8162;47.104;15.432;2022-07-23T02:16:32;10.57;;;9.67;;
16115;SDS011;8162;47.104;15.432;2022-07-23T02:18:58;11.03;;;10.00;;
16115;SDS011;8162;47.104;15.432;2022-07-23T02:21:23;10.63;;;9.63;;
16115;SDS011;8162;47.104;15.432;2022-07-23T02:23:49;11.83;;;10.20;;
16115;SDS011;8162;47.104;15.432;2022-07-23T02:26:14;10.13;;;9.10;;
16115;SDS011;8162;47.104;15.432;2022-07-23T02:28:40;10.17;;;9.27;;
16115;SDS011;8162;47.104;15.432;2022-07-23T02:31:06;10.17;;;9.17;;
16115;SDS011;8162;47.104;15.432;2022-07-23T02:33:32;9.77;;;8.97;;
16115;SDS011;8162;47.104;15.432;2022-07-23T02:35:58;10.57;;;9.60;;
16115;SDS011;8162;47.104;15.432;2022-07-23T02:38:24;10.87;;;9.77;;
16115;SDS011;8162;47.104;15.432;2022-07-23T02:40:50;10.43;;;9.50;;
16115;SDS011;8162;47.104;15.432;2022-07-23T02:43:15;10.13;;;9.13;;
16115;SDS011;8162;47.104;15.432;2022-07-23T02:45:41;11.10;;;10.07;;
16115;SDS011;8162;47.104;15.432;2022-07-23T02:48:07;11.33;;;10.17;;
16115;SDS011;8162;47.104;15.432;2022-07-23T02:50:33;11.73;;;10.53;;
16115;SDS011;8162;47.104;15.432;2022-07-23T02:52:58;10.03;;;9.03;;
16115;SDS011;8162;47.104;15.432;2022-07-23T02:55:24;10.37;;;9.37;;
16115;SDS011;8162;47.104;15.432;2022-07-23T02:57:50;11.00;;;10.07;;
16115;SDS011;8162;47.104;15.432;2022-07-23T03:00:15;9.93;;;9.07;;
16115;SDS011;8162;47.104;15.432;2022-07-23T03:02:41;11.23;;;10.13;;
16115;SDS011;8162;47.104;15.432;2022-07-23T03:05:07;10.80;;;9.77;;
16115;SDS011;8162;47.104;15.432;2022-07-23T03:07:33;10.90;;;9.90;;
16115;SDS011;8162;47.104;15.432;2022-07-23T03:09:59;10.50;;;9.60;;
16115;SDS011;8162;47.104;15.432;2022-07-23T03:12:24;11.87;;;10.77;;
16115;SDS011;8162;47.104;15.432;2022-07-23T03:14:50;11.27;;;10.17;;
16115;SDS011;8162;47.104;15.432;2022-07-23T03:17:16;11.17;;;10.07;;
16115;SDS011;8162;47.104;15.432;2022-07-23T03:19:41;16.33;;;10.83;;
16115;SDS011;8162;47.104;15.432;2022-07-23T03:22:07;11.57;;;10.47;;
16115;SDS011;8162;47.104;15.432;2022-07-23T03:24:33;11.23;;;10.23;;
16115;SDS011;8162;47.104;15.432;2022-07-23T03:27:17;11.80;;;10.80;;
16115;SDS011;8162;47.104;15.432;2022-07-23T03:29:43;11.67;;;10.60;;
16115;SDS011;8162;47.104;15.432;2022-07-23T03:32:08;12.00;;;10.30;;
16115;SDS011;8162;47.104;15.432;2022-07-23T03:34:34;11.80;;;10.80;;
16115;SDS011;8162;47.104;15.432;2022-07-23T03:37:00;11.93;;;10.73;;
16115;SDS011;8162;47.104;15.432;2022-07-23T03:39:26;13.73;;;11.50;;
16115;SDS011;8162;47.104;15.432;2022-07-23T03:41:52;11.57;;;10.53;;
16115;SDS011;8162;47.104;15.432;2022-07-23T03:44:18;12.83;;;11.80;;
16115;SDS011;8162;47.104;15.432;2022-07-23T03:46:43;13.60;;;12.13;;
16115;SDS011;8162;47.104;15.432;2022-07-23T03:49:09;12.47;;;11.47;;
16115;SDS011;8162;47.104;15.432;2022-07-23T03:51:34;13.03;;;11.83;;
16115;SDS011;8162;47.104;15.432;2022-07-23T03:54:00;13.10;;;11.90;;
16115;SDS011;8162;47.104;15.432;2022-07-23T03:56:26;12.83;;;11.63;;
16115;SDS011;8162;47.104;15.432;2022-07-23T03:58:51;13.23;;;11.93;;
16115;SDS011;8162;47.104;15.432;2022-07-23T04:01:17;14.10;;;12.80;;
16115;SDS011;8162;47.104;15.432;2022-07-23T04:03:43;13.80;;;12.47;;
16115;SDS011;8162;47.104;15.432;2022-07-23T04:06:08;13.57;;;12.13;;
16115;SDS011;8162;47.104;15.432;2022-07-23T04:08:34;13.20;;;12.00;;
16115;SDS011;8162;47.104;15.432;2022-07-23T04:11:00;13.17;;;11.00;;
16115;SDS011;8162;47.104;15.432;2022-07-23T04:13:25;12.97;;;11.87;;
16115;SDS011;8162;47.104;15.432;2022-07-23T04:15:51;13.17;;;11.87;;
16115;SDS011;8162;47.104;15.432;2022-07-23T04:18:17;13.10;;;11.90;;
16115;SDS011;8162;47.104;15.432;2022-07-23T04:20:43;11.93;;;10.93;;
16115;SDS011;8162;47.104;15.432;2022-07-23T04:23:09;12.40;;;11.10;;
16115;SDS011;8162;47.104;15.432;2022-07-23T04:25:35;12.50;;;11.50;;
16115;SDS011;8162;47.104;15.432;2022-07-23T04:28:01;12.77;;;11.63;;
16115;SDS011;8162;47.104;15.432;2022-07-23T04:30:27;12.07;;;10.90;;
16115;SDS011;8162;47.104;15.432;2022-07-23T04:32:52;13.70;;;12.40;;
16115;SDS011;8162;47.104;15.432;2022-07-23T04:35:18;13.70;;;12.27;;
16115;SDS011;8162;47.104;15.432;2022-07-23T04:37:44;12.50;;;11.37;;
16115;SDS011;8162;47.104;15.432;2022-07-23T04:40:10;13.07;;;11.77;;
16115;SDS011;8162;47.104;15.432;2022-07-23T04:42:36;13.20;;;12.00;;
16115;SDS011;8162;47.104;15.432;2022-07-23T04:45:02;13.10;;;11.80;;
16115;SDS011;8162;47.104;15.432;2022-07-23T04:47:29;13.40;;;12.20;;
16115;SDS011;8162;47.104;15.432;2022-07-23T04:49:55;12.87;;;11.77;;
16115;SDS011;8162;47.104;15.432;2022-07-23T04:52:21;13.53;;;12.13;;
16115;SDS011;8162;47.104;15.432;2022-07-23T04:54:47;12.93;;;11.80;;
16115;SDS011;8162;47.104;15.432;2022-07-23T04:57:12;12.63;;;11.63;;
16115;SDS011;8162;47.104;15.432;2022-07-23T04:59:38;13.43;;;11.93;;
16115;SDS011;8162;47.104;15.432;2022-07-23T05:02:04;14.23;;;12.83;;
16115;SDS011;8162;47.104;15.432;2022-07-23T05:04:29;13.73;;;12.43;;
16115;SDS011;8162;47.104;15.432;2022-07-23T05:06:56;14.73;;;13.20;;
16115;SDS011;8162;47.104;15.432;2022-07-23T05:09:22;14.50;;;13.10;;
16115;SDS011;8162;47.104;15.432;2022-07-23T05:11:48;14.50;;;13.10;;
16115;SDS011;8162;47.104;15.432;2022-07-23T05:14:14;15.20;;;13.70;;
16115;SDS011;8162;47.104;15.432;2022-07-23T05:16:39;14.10;;;12.70;;
16115;SDS011;8162;47.104;15.432;2022-07-23T05:19:05;16.00;;;13.37;;
16115;SDS011;8162;47.104;15.432;2022-07-23T05:21:31;13.70;;;12.50;;
16115;SDS011;8162;47.104;15.432;2022-07-23T05:23:57;13.67;;;12.57;;
16115;SDS011;8162;47.104;15.432;2022-07-23T05:26:23;15.73;;;13.27;;
16115;SDS011;8162;47.104;15.432;2022-07-23T05:28:49;14.57;;;13.37;;
16115;SDS011;8162;47.104;15.432;2022-07-23T05:31:15;15.73;;;13.83;;
16115;SDS011;8162;47.104;15.432;2022-07-23T05:33:41;14.90;;;13.30;;
16115;SDS011;8162;47.104;15.432;2022-07-23T05:36:07;14.20;;;12.90;;
16115;SDS011;8162;47.104;15.432;2022-07-23T05:38:33;15.10;;;13.60;;
16115;SDS011;8162;47.104;15.432;2022-07-23T05:40:59;14.00;;;12.80;;
16115;SDS011;8162;47.104;15.432;2022-07-23T05:43:25;14.83;;;13.37;;
16115;SDS011;8162;47.104;15.432;2022-07-23T05:45:51;14.43;;;13.07;;
16115;SDS011;8162;47.104;15.432;2022-07-23T05:48:17;13.43;;;12.23;;
16115;SDS011;8162;47.104;15.432;2022-07-23T05:50:42;15.07;;;13.70;;
16115;SDS011;8162;47.104;15.432;2022-07-23T05:53:08;14.93;;;13.53;;
16115;SDS011;8162;47.104;15.432;2022-07-23T05:55:34;13.90;;;12.60;;
16115;SDS011;8162;47.104;15.432;2022-07-23T05:57:59;14.63;;;13.30;;
16115;SDS011;8162;47.104;15.432;2022-07-23T06:00:25;13.33;;;12.13;;
16115;SDS011;8162;47.104;15.432;2022-07-23T06:02:52;14.13;;;12.93;;
16115;SDS011;8162;47.104;15.432;2022-07-23T06:05:18;14.00;;;12.57;;
16115;SDS011;8162;47.104;15.432;2022-07-23T06:07:44;14.07;;;12.67;;
16115;SDS011;8162;47.104;15.432;2022-07-23T06:10:10;15.13;;;13.63;;
16115;SDS011;8162;47.104;15.432;2022-07-23T06:12:36;14.80;;;13.43;;
16115;SDS011;8162;47.104;15.432;2022-07-23T06:15:02;14.10;;;12.80;;
16115;SDS011;8162;47.104;15.432;2022-07-23T06:17:28;13.67;;;12.50;;
16115;SDS011;8162;47.104;15.432;2022-07-23T06:19:54;13.83;;;12.53;;
16115;SDS011;8162;47.104;15.432;2022-07-23T06:22:20;13.50;;;12.10;;
16115;SDS011;8162;47.104;15.432;2022-07-23T06:24:47;12.90;;;11.80;;
16115;SDS011;8162;47.104;15.432;2022-07-23T06:27:13;14.17;;;12.70;;
16115;SDS011;8162;47.104;15.432;2022-07-23T06:29:39;13.17;;;11.97;;
16115;SDS011;8162;47.104;15.432;2022-07-23T06:32:06;14.13;;;12.77;;
16115;SDS011;8162;47.104;15.432;2022-07-23T06:34:33;14.33;;;13.03;;
16115;SDS011;8162;47.104;15.432;2022-07-23T06:36:59;14.10;;;12.77;;
16115;SDS011;8162;47.104;15.432;2022-07-23T06:39:25;13.53;;;12.23;;
16115;SDS011;8162;47.104;15.432;2022-07-23T06:41:51;12.50;;;11.30;;
16115;SDS011;8162;47.104;15.432;2022-07-23T06:44:17;12.80;;;11.50;;
16115;SDS011;8162;47.104;15.432;2022-07-23T06:46:43;12.67;;;11.57;;
16115;SDS011;8162;47.104;15.432;2022-07-23T06:49:08;13.90;;;12.47;;
16115;SDS011;8162;47.104;15.432;2022-07-23T06:51:34;13.47;;;12.27;;
16115;SDS011;8162;47.104;15.432;2022-07-23T06:54:00;14.20;;;12.83;;
16115;SDS011;8162;47.104;15.432;2022-07-23T06:56:26;12.83;;;11.77;;
16115;SDS011;8162;47.104;15.432;2022-07-23T06:58:51;12.00;;;10.90;;
16115;SDS011;8162;47.104;15.432;2022-07-23T07:01:17;12.43;;;11.27;;
16115;SDS011;8162;47.104;15.432;2022-07-23T07:03:43;13.80;;;12.27;;
16115;SDS011;8162;47.104;15.432;2022-07-23T07:06:08;13.17;;;11.93;;
16115;SDS011;8162;47.104;15.432;2022-07-23T07:08:34;13.10;;;11.77;;
16115;SDS011;8162;47.104;15.432;2022-07-23T07:11:00;13.67;;;12.50;;
16115;SDS011;8162;47.104;15.432;2022-07-23T07:13:26;13.40;;;12.20;;
16115;SDS011;8162;47.104;15.432;2022-07-23T07:15:51;12.70;;;11.60;;
16115;SDS011;8162;47.104;15.432;2022-07-23T07:18:17;12.13;;;11.03;;
16115;SDS011;8162;47.104;15.432;2022-07-23T07:20:43;12.73;;;11.67;;
16115;SDS011;8162;47.104;15.432;2022-07-23T07:23:08;12.37;;;11.13;;
16115;SDS011;8162;47.104;15.432;2022-07-23T07:25:34;12.23;;;11.03;;
16115;SDS011;8162;47.104;15.432;2022-07-23T07:28:00;11.23;;;10.13;;
16115;SDS011;8162;47.104;15.432;2022-07-23T07:30:25;10.90;;;9.90;;
16115;SDS011;8162;47.104;15.432;2022-07-23T07:32:51;11.33;;;10.10;;
16115;SDS011;8162;47.104;15.432;2022-07-23T07:35:17;10.47;;;9.47;;
16115;SDS011;8162;47.104;15.432;2022-07-23T07:37:43;11.17;;;9.83;;
16115;SDS011;8162;47.104;15.432;2022-07-23T07:40:09;10.83;;;9.20;;
16115;SDS011;8162;47.104;15.432;2022-07-23T07:42:34;9.27;;;8.47;;
16115;SDS011;8162;47.104;15.432;2022-07-23T07:45:09;12.57;;;8.83;;
16115;SDS011;8162;47.104;15.432;2022-07-23T07:47:34;8.87;;;8.00;;
16115;SDS011;8162;47.104;15.432;2022-07-23T07:50:00;8.93;;;8.03;;
16115;SDS011;8162;47.104;15.432;2022-07-23T07:52:26;8.53;;;7.83;;
16115;SDS011;8162;47.104;15.432;2022-07-23T07:54:51;7.97;;;7.33;;
16115;SDS011;8162;47.104;15.432;2022-07-23T07:57:17;7.50;;;5.97;;
16115;SDS011;8162;47.104;15.432;2022-07-23T07:59:43;5.90;;;5.50;;
16115;SDS011;8162;47.104;15.432;2022-07-23T08:02:08;6.55;;;5.85;;
16115;SDS011;8162;47.104;15.432;2022-07-23T08:04:34;6.53;;;6.03;;
16115;SDS011;8162;47.104;15.432;2022-07-23T08:07:00;6.30;;;5.80;;
16115;SDS011;8162;47.104;15.432;2022-07-23T08:09:25;6.20;;;5.70;;
16115;SDS011;8162;47.104;15.432;2022-07-23T08:11:51;6.63;;;6.03;;
16115;SDS011;8162;47.104;15.432;2022-07-23T08:14:17;6.47;;;5.90;;
16115;SDS011;8162;47.104;15.432;2022-07-23T08:16:43;7.03;;;6.40;;
16115;SDS011;8162;47.104;15.432;2022-07-23T08:19:09;6.40;;;5.80;;
16115;SDS011;8162;47.104;15.432;2022-07-23T08:21:35;6.10;;;5.50;;
16115;SDS011;8162;47.104;15.432;2022-07-23T08:24:00;6.63;;;6.13;;
16115;SDS011;8162;47.104;15.432;2022-07-23T08:26:26;6.33;;;5.73;;
16115;SDS011;8162;47.104;15.432;2022-07-23T08:28:52;6.27;;;5.77;;
16115;SDS011;8162;47.104;15.432;2022-07-23T08:31:17;5.87;;;5.47;;
16115;SDS011;8162;47.104;15.432;2022-07-23T08:33:43;6.47;;;5.67;;
16115;SDS011;8162;47.104;15.432;2022-07-23T08:36:09;5.87;;;5.37;;
16115;SDS011;8162;47.104;15.432;2022-07-23T08:38:35;6.17;;;5.13;;
16115;SDS011;8162;47.104;15.432;2022-07-23T08:41:00;5.73;;;5.23;;
16115;SDS011;8162;47.104;15.432;2022-07-23T08:43:28;5.20;;;4.80;;
16115;SDS011;8162;47.104;15.432;2022-07-23T08:45:57;5.70;;;5.20;;
16115;SDS011;8162;47.104;15.432;2022-07-23T08:48:25;6.17;;;5.67;;
16115;SDS011;8162;47.104;15.432;2022-07-23T08:50:54;5.90;;;5.40;;
16115;SDS011;8162;47.104;15.432;2022-07-23T08:53:24;6.37;;;5.73;;
16115;SDS011;8162;47.104;15.432;2022-07-23T08:55:52;6.37;;;5.77;;
16115;SDS011;8162;47.104;15.432;2022-07-23T08:58:20;7.43;;;5.67;;
16115;SDS011;8162;47.104;15.432;2022-07-23T09:00:47;5.90;;;5.33;;
16115;SDS011;8162;47.104;15.432;2022-07-23T09:03:35;6.17;;;5.67;;
16115;SDS011;8162;47.104;15.432;2022-07-23T09:06:01;6.47;;;5.97;;
16115;SDS011;8162;47.104;15.432;2022-07-23T09:11:06;5.80;;;5.40;;
16115;SDS011;8162;47.104;15.432;2022-07-23T09:16:08;6.77;;;6.17;;
16115;SDS011;8162;47.104;15.432;2022-07-23T09:18:47;6.20;;;5.67;;
16115;SDS011;8162;47.104;15.432;2022-07-23T09:26:30;6.63;;;6.03;;
16115;SDS011;8162;47.104;15.432;2022-07-23T09:36:42;6.30;;;5.80;;
16115;SDS011;8162;47.104;15.432;2022-07-23T09:39:09;5.90;;;5.40;;
16115;SDS011;8162;47.104;15.432;2022-07-23T09:41:40;6.13;;;5.53;;
16115;SDS011;8162;47.104;15.432;2022-07-23T09:44:11;6.20;;;5.70;;
16115;SDS011;8162;47.104;15.432;2022-07-23T09:46:39;6.30;;;5.37;;
16115;SDS011;8162;47.104;15.432;2022-07-23T09:49:38;6.13;;;5.53;;
16115;SDS011;8162;47.104;15.432;2022-07-23T09:51:58;7.00;;;6.40;;
16115;SDS011;8162;47.104;15.432;2022-07-23T09:54:27;5.20;;;4.80;;
16115;SDS011;8162;47.104;15.432;2022-07-23T09:57:20;5.50;;;4.90;;
16115;SDS011;8162;47.104;15.432;2022-07-23T09:59:46;5.53;;;5.13;;
16115;SDS011;8162;47.104;15.432;2022-07-23T10:02:12;5.87;;;5.27;;
16115;SDS011;8162;47.104;15.432;2022-07-23T10:04:39;5.93;;;4.90;;
16115;SDS011;8162;47.104;15.432;2022-07-23T10:07:07;4.80;;;4.43;;
16115;SDS011;8162;47.104;15.432;2022-07-23T10:09:36;6.17;;;4.87;;
16115;SDS011;8162;47.104;15.432;2022-07-23T10:12:04;5.90;;;5.40;;
16115;SDS011;8162;47.104;15.432;2022-07-23T10:14:42;4.83;;;4.43;;
16115;SDS011;8162;47.104;15.432;2022-07-23T10:17:08;5.20;;;4.80;;
16115;SDS011;8162;47.104;15.432;2022-07-23T10:19:34;5.57;;;5.07;;
16115;SDS011;8162;47.104;15.432;2022-07-23T10:22:07;5.00;;;4.60;;
16115;SDS011;8162;47.104;15.432;2022-07-23T10:30:17;5.97;;;5.47;;
16115;SDS011;8162;47.104;15.432;2022-07-23T10:41:08;6.57;;;5.97;;
16115;SDS011;8162;47.104;15.432;2022-07-23T10:43:33;6.30;;;5.90;;
16115;SDS011;8162;47.104;15.432;2022-07-23T10:46:20;5.67;;;5.17;;
16115;SDS011;8162;47.104;15.432;2022-07-23T10:49:20;6.27;;;5.70;;
16115;SDS011;8162;47.104;15.432;2022-07-23T10:54:39;6.50;;;5.97;;
16115;SDS011;8162;47.104;15.432;2022-07-23T10:57:28;6.80;;;6.20;;
16115;SDS011;8162;47.104;15.432;2022-07-23T11:02:36;7.97;;;7.37;;
16115;SDS011;8162;47.104;15.432;2022-07-23T11:05:13;6.90;;;6.27;;
16115;SDS011;8162;47.104;15.432;2022-07-23T11:31:57;7.50;;;6.80;;
16115;SDS011;8162;47.104;15.432;2022-07-23T11:36:58;8.97;;;8.27;;
16115;SDS011;8162;47.104;15.432;2022-07-23T11:39:24;8.27;;;7.57;;
16115;SDS011;8162;47.104;15.432;2022-07-23T11:41:51;7.03;;;6.43;;
16115;SDS011;8162;47.104;15.432;2022-07-23T11:44:31;6.53;;;6.03;;
16115;SDS011;8162;47.104;15.432;2022-07-23T11:47:06;7.00;;;6.30;;
16115;SDS011;8162;47.104;15.432;2022-07-23T11:49:34;7.07;;;5.80;;
16115;SDS011;8162;47.104;15.432;2022-07-23T11:54:33;6.43;;;5.83;;
16115;SDS011;8162;47.104;15.432;2022-07-23T11:57:00;6.50;;;6.00;;
16115;SDS011;8162;47.104;15.432;2022-07-23T11:59:29;6.27;;;5.77;;
16115;SDS011;8162;47.104;15.432;2022-07-23T12:04:24;7.83;;;6.20;;
16115;SDS011;8162;47.104;15.432;2022-07-23T12:07:01;6.53;;;6.03;;
16115;SDS011;8162;47.104;15.432;2022-07-23T12:09:27;5.93;;;5.53;;
16115;SDS011;8162;47.104;15.432;2022-07-23T12:11:59;6.13;;;5.53;;
16115;SDS011;8162;47.104;15.432;2022-07-23T12:14:25;6.77;;;6.17;;
16115;SDS011;8162;47.104;15.432;2022-07-23T12:17:12;6.73;;;5.90;;
16115;SDS011;8162;47.104;15.432;2022-07-23T12:19:37;6.37;;;5.80;;
16115;SDS011;8162;47.104;15.432;2022-07-23T12:22:04;6.53;;;5.93;;
16115;SDS011;8162;47.104;15.432;2022-07-23T12:24:30;6.43;;;5.93;;
16115;SDS011;8162;47.104;15.432;2022-07-23T12:27:11;6.70;;;6.00;;
16115;SDS011;8162;47.104;15.432;2022-07-23T12:29:38;6.37;;;5.83;;
16115;SDS011;8162;47.104;15.432;2022-07-23T12:32:24;6.07;;;5.57;;
16115;SDS011;8162;47.104;15.432;2022-07-23T12:37:31;7.03;;;5.83;;
16115;SDS011;8162;47.104;15.432;2022-07-23T12:39:58;6.37;;;5.90;;
16115;SDS011;8162;47.104;15.432;2022-07-23T12:42:48;6.77;;;6.27;;
16115;SDS011;8162;47.104;15.432;2022-07-23T12:45:16;6.63;;;6.13;;
16115;SDS011;8162;47.104;15.432;2022-07-23T12:47:59;6.37;;;5.87;;
16115;SDS011;8162;47.104;15.432;2022-07-23T12:53:12;6.50;;;6.00;;
16115;SDS011;8162;47.104;15.432;2022-07-23T12:55:43;6.73;;;6.13;;
16115;SDS011;8162;47.104;15.432;2022-07-23T13:03:29;6.00;;;5.50;;
16115;SDS011;8162;47.104;15.432;2022-07-23T13:06:09;6.47;;;5.97;;
16115;SDS011;8162;47.104;15.432;2022-07-23T13:08:37;6.75;;;6.15;;
16115;SDS011;8162;47.104;15.432;2022-07-23T13:11:05;6.32;;;5.82;;
16115;SDS011;8162;47.104;15.432;2022-07-23T13:13:32;5.95;;;5.45;;
16115;SDS011;8162;47.104;15.432;2022-07-23T13:15:59;6.55;;;6.05;;
16115;SDS011;8162;47.104;15.432;2022-07-23T13:18:26;6.13;;;5.63;;
16115;SDS011;8162;47.104;15.432;2022-07-23T13:20:53;5.60;;;5.20;;
16115;SDS011;8162;47.104;15.432;2022-07-23T13:23:20;5.80;;;5.30;;
16115;SDS011;8162;47.104;15.432;2022-07-23T13:25:46;5.80;;;5.30;;
16115;SDS011;8162;47.104;15.432;2022-07-23T13:28:13;5.95;;;5.53;;
16115;SDS011;8162;47.104;15.432;2022-07-23T13:30:40;5.80;;;5.40;;
16115;SDS011;8162;47.104;15.432;2022-07-23T13:33:06;6.05;;;5.55;;
16115;SDS011;8162;47.104;15.432;2022-07-23T13:35:33;5.95;;;5.45;;
16115;SDS011;8162;47.104;15.432;2022-07-23T13:38:03;6.80;;;6.07;;
16115;SDS011;8162;47.104;15.432;2022-07-23T13:40:29;7.55;;;6.80;;
16115;SDS011;8162;47.104;15.432;2022-07-23T13:42:55;6.27;;;5.77;;
16115;SDS011;8162;47.104;15.432;2022-07-23T13:45:21;5.93;;;5.50;;
16115;SDS011;8162;47.104;15.432;2022-07-23T13:47:46;5.93;;;5.43;;
16115;SDS011;8162;47.104;15.432;2022-07-23T13:50:12;6.40;;;5.80;;
16115;SDS011;8162;47.104;15.432;2022-07-23T13:52:40;6.70;;;6.20;;
16115;SDS011;8162;47.104;15.432;2022-07-23T13:55:06;6.13;;;5.63;;
16115;SDS011;8162;47.104;15.432;2022-07-23T13:57:32;6.20;;;5.70;;
16115;SDS011;8162;47.104;15.432;2022-07-23T13:59:58;6.20;;;5.60;;
16115;SDS011;8162;47.104;15.432;2022-07-23T14:02:24;6.30;;;5.80;;
16115;SDS011;8162;47.104;15.432;2022-07-23T14:04:50;6.17;;;5.30;;
16115;SDS011;8162;47.104;15.432;2022-07-23T14:07:16;6.43;;;5.93;;
16115;SDS011;8162;47.104;15.432;2022-07-23T14:09:42;5.90;;;5.50;;
16115;SDS011;8162;47.104;15.432;2022-07-23T14:12:08;8.10;;;6.73;;
16115;SDS011;8162;47.104;15.432;2022-07-23T14:14:34;5.87;;;5.27;;
16115;SDS011;8162;47.104;15.432;2022-07-23T14:17:00;5.70;;;5.30;;
16115;SDS011;8162;47.104;15.432;2022-07-23T14:19:26;6.70;;;6.10;;
16115;SDS011;8162;47.104;15.432;2022-07-23T14:21:52;6.63;;;6.13;;
16115;SDS011;8162;47.104;15.432;2022-07-23T14:24:17;7.00;;;6.43;;
16115;SDS011;8162;47.104;15.432;2022-07-23T14:26:43;6.20;;;5.60;;
16115;SDS011;8162;47.104;15.432;2022-07-23T14:29:09;6.23;;;5.63;;
16115;SDS011;8162;47.104;15.432;2022-07-23T14:31:34;6.50;;;6.00;;
16115;SDS011;8162;47.104;15.432;2022-07-23T14:34:00;6.83;;;6.23;;
16115;SDS011;8162;47.104;15.432;2022-07-23T14:36:26;6.67;;;6.07;;
16115;SDS011;8162;47.104;15.432;2022-07-23T14:38:52;5.97;;;5.47;;
16115;SDS011;8162;47.104;15.432;2022-07-23T14:41:18;6.67;;;6.13;;
16115;SDS011;8162;47.104;15.432;2022-07-23T14:43:44;6.70;;;6.10;;
16115;SDS011;8162;47.104;15.432;2022-07-23T14:46:10;6.23;;;5.73;;
16115;SDS011;8162;47.104;15.432;2022-07-23T14:48:36;6.17;;;5.67;;
16115;SDS011;8162;47.104;15.432;2022-07-23T14:51:02;6.33;;;5.83;;
16115;SDS011;8162;47.104;15.432;2022-07-23T14:53:28;6.13;;;5.73;;
16115;SDS011;8162;47.104;15.432;2022-07-23T14:55:54;5.90;;;5.40;;
16115;SDS011;8162;47.104;15.432;2022-07-23T14:58:22;5.73;;;5.33;;
16115;SDS011;8162;47.104;15.432;2022-07-23T15:00:48;6.93;;;6.43;;
16115;SDS011;8162;47.104;15.432;2022-07-23T15:03:14;6.50;;;5.90;;
16115;SDS011;8162;47.104;15.432;2022-07-23T15:05:40;5.80;;;5.20;;
16115;SDS011;8162;47.104;15.432;2022-07-23T15:08:06;6.23;;;5.70;;
16115;SDS011;8162;47.104;15.432;2022-07-23T15:10:31;6.47;;;5.97;;
16115;SDS011;8162;47.104;15.432;2022-07-23T15:12:58;6.23;;;5.73;;
16115;SDS011;8162;47.104;15.432;2022-07-23T15:15:24;6.20;;;5.60;;
16115;SDS011;8162;47.104;15.432;2022-07-23T15:17:49;6.43;;;5.93;;
16115;SDS011;8162;47.104;15.432;2022-07-23T15:20:15;6.23;;;5.73;;
16115;SDS011;8162;47.104;15.432;2022-07-23T15:22:41;6.03;;;5.53;;
16115;SDS011;8162;47.104;15.432;2022-07-23T15:25:08;5.73;;;5.33;;
16115;SDS011;8162;47.104;15.432;2022-07-23T15:27:34;6.37;;;5.87;;
16115;SDS011;8162;47.104;15.432;2022-07-23T15:29:59;6.50;;;5.90;;
16115;SDS011;8162;47.104;15.432;2022-07-23T15:32:25;6.40;;;5.90;;
16115;SDS011;8162;47.104;15.432;2022-07-23T15:34:52;6.50;;;5.90;;
16115;SDS011;8162;47.104;15.432;2022-07-23T15:37:18;6.47;;;5.90;;
16115;SDS011;8162;47.104;15.432;2022-07-23T15:39:44;6.47;;;5.97;;
16115;SDS011;8162;47.104;15.432;2022-07-23T15:42:09;6.60;;;6.00;;
16115;SDS011;8162;47.104;15.432;2022-07-23T15:44:35;6.13;;;5.70;;
16115;SDS011;8162;47.104;15.432;2022-07-23T15:47:01;5.97;;;5.53;;
16115;SDS011;8162;47.104;15.432;2022-07-23T15:49:27;6.57;;;5.40;;
16115;SDS011;8162;47.104;15.432;2022-07-23T15:51:53;6.30;;;5.80;;
16115;SDS011;8162;47.104;15.432;2022-07-23T15:54:20;5.67;;;5.27;;